메인 페이지
METAR-TAF:

METAR-TAF

공항 :

오데사, 우크라이나

위도: 46-26N, 경도: 030-46E, 고도: 42m

현재 날씨관측

예보는 13분 전, 15:00시(UTC)에 발표되었습니다.
남남서8kt
온도 17°C
습도 59%
기압 1020 hPa
시정 10km 이상
1500m 미만 상공 구름 및 적란운 없음

METAR: UKOO 221500Z 20004MPS CAVOK 17/09 Q1020 R16/090060 NOSIG

시각: 18:13 (15:13 UTC)

예보

예보는 4 시간 2분 전, 11:11시(UTC)에 발표되었습니다.
예보 대상 시간: 22일 12시부터 23일 12시까지 (UTC)
남서12kt, 순간 최대 풍속 23kt
시정: 6000m
고도 1300ft 상공 구름 보통
전환 중
22일 18시부터 22일 19시까지 (UTC)
남서6kt
시정: 2100m
고도 700ft 상공 구름 많음
박무
확률 40% :
일시적
22일 19시부터 23일 06시까지 (UTC)
시정: 0300m
고도 200ft 상공
안개

TAF: UKOO 221111Z 2212/2312 22006G12MPS 6000 SCT013 BECMG 2218/2219 22003MPS 2100 BR BKN007 PROB40 TEMPO 2219/2306 0300 FG VV002

4,000개 이상의 공항 관측 자료 및 예보 (METAR 및 TAF 보고).

지도상에서 검색 가능한 기상관측소가 노란 점과 빨간 점으로 표시되어 있습니다.

기상관측소 명을 보려면 표시 위로 마우스를 이동하세요.

날씨 관측과 예보를 보려면 클릭하세요.

지도 변경 : 확대하려면 엑스 표시가 있는 녹색 버튼, 축소하려면 빼기 표시가 있는 녹색 버튼, 다음 페이지의 지도를 보려면 녹색 화살표를 클릭하세요.


METAR-TAF: